Etusivu
METAR-TAF:

METAR-TAF

Lentoasemat :

Stewart, Brittiläinen Kolumbia, Kanada

Leveyspiiri: 55-56N, Pituuspiiri: 129-59W, korkeus merenpinnasta: 7 m

Tämänhetkinen sää

Tämä raportti tehtiin 28 tuntia ja 12 minuuttia sitten, kello 15.00 UTC
Tuuli 2 kn idästä/koillisesta
Lämpötila -17°C
Kosteus 92%
Ilmanpaine 1028 hPa
Näkyvyys: 24.1 km
selkeää

METAR: CZST 201500Z 06002KT 15SM SKC M17/M18 A3037 RMK CLIMAT -2.4/-17.9/0.0 SLP286

Aika: 11:12 (19:12 UTC)


TAF: puuttuu

Säähavainnot ja -ennusteet yli 4000 lentoasemalta (METAR- ja TAF-raportit).

Käytössä olevat sääasemat on merkitty karttaan keltaisilla ja punaisilla pisteillä.

Aseta hiiri pisteen päälle nähdäksesi sääaseman nimen.

Klikkaa sitten nähdäksesi säähavainnot ja -ennusteet.

Kartan vaihtaminen: klikkaa mustalla rastilla varustettuja vihreitä pisteitä, niin voit zoomata sisään; viivalla varustettua vihreää pistettä, niin voit zoomata ulos tai vihreitä nuolia, niin pääset viereisille kartoille.


METAR-TAF: